sensor_id;sensor_type;location;lat;lon;timestamp;pressure;altitude;pressure_sealevel;temperature;humidity
73101;BME280;61288;53.446;-2.266;2023-09-12T00:00:31;102715.88;;;14.84;100.00
73101;BME280;61288;53.446;-2.266;2023-09-12T00:02:57;102717.59;;;14.85;100.00
73101;BME280;61288;53.446;-2.266;2023-09-12T00:05:22;102734.97;;;14.86;100.00
73101;BME280;61288;53.446;-2.266;2023-09-12T00:07:52;102739.34;;;14.86;100.00
73101;BME280;61288;53.446;-2.266;2023-09-12T00:10:18;102749.72;;;14.87;100.00
73101;BME280;61288;53.446;-2.266;2023-09-12T00:12:44;102754.13;;;14.87;100.00
73101;BME280;61288;53.446;-2.266;2023-09-12T00:15:09;102754.94;;;14.87;100.00
73101;BME280;61288;53.446;-2.266;2023-09-12T00:17:35;102763.66;;;14.88;100.00
73101;BME280;61288;53.446;-2.266;2023-09-12T00:20:00;102769.72;;;14.88;100.00
73101;BME280;61288;53.446;-2.266;2023-09-12T00:22:26;102774.09;;;14.88;100.00
73101;BME280;61288;53.446;-2.266;2023-09-12T00:24:51;102784.53;;;14.88;100.00
73101;BME280;61288;53.446;-2.266;2023-09-12T00:27:17;102787.16;;;14.88;100.00
73101;BME280;61288;53.446;-2.266;2023-09-12T00:29:42;102798.41;;;14.90;100.00
73101;BME280;61288;53.446;-2.266;2023-09-12T00:32:08;102801.00;;;14.92;100.00
73101;BME280;61288;53.446;-2.266;2023-09-12T00:34:33;102808.84;;;14.90;100.00
73101;BME280;61288;53.446;-2.266;2023-09-12T00:36:59;102805.34;;;14.90;100.00
73101;BME280;61288;53.446;-2.266;2023-09-12T00:39:24;102808.84;;;14.90;100.00
73101;BME280;61288;53.446;-2.266;2023-09-12T00:41:50;102807.91;;;14.93;100.00
73101;BME280;61288;53.446;-2.266;2023-09-12T00:44:15;102818.38;;;14.93;100.00
73101;BME280;61288;53.446;-2.266;2023-09-12T00:46:41;102825.31;;;14.92;100.00
73101;BME280;61288;53.446;-2.266;2023-09-12T00:49:10;102824.44;;;14.93;100.00
73101;BME280;61288;53.446;-2.266;2023-09-12T00:51:38;102828.81;;;14.93;100.00
73101;BME280;61288;53.446;-2.266;2023-09-12T00:54:04;102837.47;;;14.93;100.00
73101;BME280;61288;53.446;-2.266;2023-09-12T00:56:30;102834.03;;;14.91;100.00
73101;BME280;61288;53.446;-2.266;2023-09-12T00:58:56;102835.75;;;14.92;100.00
73101;BME280;61288;53.446;-2.266;2023-09-12T01:01:23;102835.75;;;14.92;100.00
73101;BME280;61288;53.446;-2.266;2023-09-12T01:03:49;102838.38;;;14.92;100.00
73101;BME280;61288;53.446;-2.266;2023-09-12T01:06:16;102834.03;;;14.91;100.00
73101;BME280;61288;53.446;-2.266;2023-09-12T01:08:47;102847.09;;;14.91;100.00
73101;BME280;61288;53.446;-2.266;2023-09-12T01:11:13;102845.34;;;14.92;100.00
73101;BME280;61288;53.446;-2.266;2023-09-12T01:13:39;102851.44;;;14.91;100.00
73101;BME280;61288;53.446;-2.266;2023-09-12T01:16:04;102850.59;;;14.90;100.00
73101;BME280;61288;53.446;-2.266;2023-09-12T01:18:31;102863.66;;;14.90;100.00
73101;BME280;61288;53.446;-2.266;2023-09-12T01:29:14;102886.25;;;14.91;100.00
73101;BME280;61288;53.446;-2.266;2023-09-12T01:31:42;102893.22;;;14.91;100.00
73101;BME280;61288;53.446;-2.266;2023-09-12T01:34:12;102899.31;;;14.90;100.00
73101;BME280;61288;53.446;-2.266;2023-09-12T01:36:39;102915.88;;;14.88;100.00
73101;BME280;61288;53.446;-2.266;2023-09-12T01:39:05;102926.31;;;14.90;100.00
73101;BME280;61288;53.446;-2.266;2023-09-12T01:41:35;102949.78;;;14.90;100.00
73101;BME280;61288;53.446;-2.266;2023-09-12T01:44:05;102965.44;;;14.90;100.00
73101;BME280;61288;53.446;-2.266;2023-09-12T01:46:33;102981.97;;;14.91;100.00
73101;BME280;61288;53.446;-2.266;2023-09-12T01:49:00;102980.25;;;14.90;100.00
73101;BME280;61288;53.446;-2.266;2023-09-12T01:51:28;102988.94;;;14.90;100.00
73101;BME280;61288;53.446;-2.266;2023-09-12T01:53:54;103003.69;;;14.93;100.00
73101;BME280;61288;53.446;-2.266;2023-09-12T01:56:21;103017.63;;;14.92;100.00
73101;BME280;61288;53.446;-2.266;2023-09-12T01:58:47;103026.28;;;14.94;100.00
73101;BME280;61288;53.446;-2.266;2023-09-12T02:01:14;103048.91;;;14.93;100.00
73101;BME280;61288;53.446;-2.266;2023-09-12T02:03:39;103067.16;;;14.95;100.00
73101;BME280;61288;53.446;-2.266;2023-09-12T02:06:05;103075.00;;;14.95;100.00
73101;BME280;61288;53.446;-2.266;2023-09-12T02:08:30;103081.06;;;14.95;100.00
73101;BME280;61288;53.446;-2.266;2023-09-12T02:10:56;103094.13;;;14.95;100.00
73101;BME280;61288;53.446;-2.266;2023-09-12T02:13:21;103104.56;;;14.95;100.00
73101;BME280;61288;53.446;-2.266;2023-09-12T02:15:47;103144.63;;;14.94;100.00
73101;BME280;61288;53.446;-2.266;2023-09-12T02:18:12;103379.56;;;14.94;100.00
73101;BME280;61288;53.446;-2.266;2023-09-12T02:20:41;103537.97;;;14.94;100.00
73101;BME280;61288;53.446;-2.266;2023-09-12T02:23:07;103666.75;;;14.94;100.00
73101;BME280;61288;53.446;-2.266;2023-09-12T02:25:32;103772.97;;;14.94;100.00
73101;BME280;61288;53.446;-2.266;2023-09-12T02:28:00;103880.84;;;14.94;100.00
73101;BME280;61288;53.446;-2.266;2023-09-12T02:30:27;103965.28;;;14.95;100.00
73101;BME280;61288;53.446;-2.266;2023-09-12T02:32:52;104044.47;;;14.95;100.00
73101;BME280;61288;53.446;-2.266;2023-09-12T02:35:19;104133.28;;;14.94;100.00
73101;BME280;61288;53.446;-2.266;2023-09-12T02:37:46;104212.47;;;14.94;100.00
73101;BME280;61288;53.446;-2.266;2023-09-12T02:40:11;104389.16;;;14.95;100.00
73101;BME280;61288;53.446;-2.266;2023-09-12T02:42:39;104478.84;;;14.96;100.00
73101;BME280;61288;53.446;-2.266;2023-09-12T02:45:05;104592.00;;;14.95;100.00
73101;BME280;61288;53.446;-2.266;2023-09-12T02:47:31;104686.00;;;14.93;100.00
73101;BME280;61288;53.446;-2.266;2023-09-12T02:49:56;104744.28;;;14.91;100.00
73101;BME280;61288;53.446;-2.266;2023-09-12T02:52:22;104806.09;;;14.88;100.00
73101;BME280;61288;53.446;-2.266;2023-09-12T02:54:47;104697.09;;;14.61;100.00
73101;BME280;61288;53.446;-2.266;2023-09-12T02:57:13;104415.16;;;14.41;100.00
73101;BME280;61288;53.446;-2.266;2023-09-12T02:59:39;104182.09;;;14.28;100.00
73101;BME280;61288;53.446;-2.266;2023-09-12T03:02:07;103890.03;;;14.15;100.00
73101;BME280;61288;53.446;-2.266;2023-09-12T03:04:35;103591.91;;;14.12;100.00
73101;BME280;61288;53.446;-2.266;2023-09-12T03:07:01;103375.59;;;14.03;100.00
73101;BME280;61288;53.446;-2.266;2023-09-12T03:09:27;103299.25;;;13.94;100.00
73101;BME280;61288;53.446;-2.266;2023-09-12T03:11:53;103254.13;;;13.89;100.00
73101;BME280;61288;53.446;-2.266;2023-09-12T03:14:18;103232.44;;;13.87;100.00
73101;BME280;61288;53.446;-2.266;2023-09-12T03:16:44;103201.25;;;13.81;100.00
73101;BME280;61288;53.446;-2.266;2023-09-12T03:19:09;103167.47;;;13.75;100.00
73101;BME280;61288;53.446;-2.266;2023-09-12T03:21:35;103144.06;;;13.70;100.00
73101;BME280;61288;53.446;-2.266;2023-09-12T03:24:00;103116.31;;;13.69;100.00
73101;BME280;61288;53.446;-2.266;2023-09-12T03:26:26;103086.91;;;13.61;100.00
73101;BME280;61288;53.446;-2.266;2023-09-12T03:28:52;103070.44;;;13.58;100.00
73101;BME280;61288;53.446;-2.266;2023-09-12T03:31:18;103052.22;;;13.57;100.00
73101;BME280;61288;53.446;-2.266;2023-09-12T03:33:44;103038.34;;;13.56;100.00
73101;BME280;61288;53.446;-2.266;2023-09-12T03:36:15;103026.25;;;13.52;100.00
73101;BME280;61288;53.446;-2.266;2023-09-12T03:38:43;103024.53;;;13.51;100.00
73101;BME280;61288;53.446;-2.266;2023-09-12T03:41:08;103017.63;;;13.50;100.00
73101;BME280;61288;53.446;-2.266;2023-09-12T03:43:34;103017.63;;;13.50;100.00
73101;BME280;61288;53.446;-2.266;2023-09-12T03:45:59;103019.34;;;13.51;100.00
73101;BME280;61288;53.446;-2.266;2023-09-12T03:48:25;103021.13;;;13.48;100.00
73101;BME280;61288;53.446;-2.266;2023-09-12T03:50:51;103013.34;;;13.46;100.00
73101;BME280;61288;53.446;-2.266;2023-09-12T03:53:17;103004.66;;;13.46;100.00
73101;BME280;61288;53.446;-2.266;2023-09-12T03:55:42;102989.06;;;13.44;100.00
73101;BME280;61288;53.446;-2.266;2023-09-12T03:58:08;102990.78;;;13.43;100.00
73101;BME280;61288;53.446;-2.266;2023-09-12T04:00:33;102984.78;;;13.38;100.00
73101;BME280;61288;53.446;-2.266;2023-09-12T04:03:01;102984.72;;;13.40;100.00
73101;BME280;61288;53.446;-2.266;2023-09-12T04:05:27;102976.09;;;13.38;100.00
73101;BME280;61288;53.446;-2.266;2023-09-12T04:07:53;102960.56;;;13.33;100.00
73101;BME280;61288;53.446;-2.266;2023-09-12T04:10:20;102962.28;;;13.34;100.00
73101;BME280;61288;53.446;-2.266;2023-09-12T04:12:45;102959.72;;;13.31;100.00
73101;BME280;61288;53.446;-2.266;2023-09-12T04:15:11;102951.91;;;13.31;100.00
73101;BME280;61288;53.446;-2.266;2023-09-12T04:17:36;102950.25;;;13.27;100.00
73101;BME280;61288;53.446;-2.266;2023-09-12T04:20:02;102945.94;;;13.24;100.00
73101;BME280;61288;53.446;-2.266;2023-09-12T04:22:30;102939.91;;;13.22;100.00
73101;BME280;61288;53.446;-2.266;2023-09-12T04:24:55;102952.03;;;13.22;100.00
73101;BME280;61288;53.446;-2.266;2023-09-12T04:27:21;102962.50;;;13.20;100.00
73101;BME280;61288;53.446;-2.266;2023-09-12T04:29:46;102967.69;;;13.19;100.00
73101;BME280;61288;53.446;-2.266;2023-09-12T04:32:12;102962.53;;;13.15;100.00
73101;BME280;61288;53.446;-2.266;2023-09-12T04:34:37;102971.28;;;13.13;100.00
73101;BME280;61288;53.446;-2.266;2023-09-12T04:37:03;102965.25;;;13.08;100.00
73101;BME280;61288;53.446;-2.266;2023-09-12T04:39:31;102959.22;;;13.06;100.00
73101;BME280;61288;53.446;-2.266;2023-09-12T04:41:56;102954.94;;;13.03;100.00
73101;BME280;61288;53.446;-2.266;2023-09-12T04:44:22;102949.72;;;13.03;100.00
73101;BME280;61288;53.446;-2.266;2023-09-12T04:46:47;102960.16;;;13.02;100.00
73101;BME280;61288;53.446;-2.266;2023-09-12T04:49:13;102966.28;;;12.99;100.00
73101;BME280;61288;53.446;-2.266;2023-09-12T04:51:39;102979.28;;;12.99;100.00
73101;BME280;61288;53.446;-2.266;2023-09-12T04:54:05;102995.78;;;12.96;100.00
73101;BME280;61288;53.446;-2.266;2023-09-12T04:56:34;103009.72;;;12.92;100.00
73101;BME280;61288;53.446;-2.266;2023-09-12T04:59:00;103010.66;;;12.86;100.00
73101;BME280;61288;53.446;-2.266;2023-09-12T05:01:25;103002.00;;;12.84;100.00
73101;BME280;61288;53.446;-2.266;2023-09-12T05:03:51;103007.31;;;12.80;100.00
73101;BME280;61288;53.446;-2.266;2023-09-12T05:06:17;103010.75;;;12.80;100.00
73101;BME280;61288;53.446;-2.266;2023-09-12T05:08:42;103018.63;;;12.74;100.00
73101;BME280;61288;53.446;-2.266;2023-09-12T05:11:08;103022.13;;;12.71;100.00
73101;BME280;61288;53.446;-2.266;2023-09-12T05:13:34;103029.97;;;12.68;100.00
73101;BME280;61288;53.446;-2.266;2023-09-12T05:15:59;103044.72;;;12.66;100.00
73101;BME280;61288;53.446;-2.266;2023-09-12T05:18:25;103048.25;;;12.62;100.00
73101;BME280;61288;53.446;-2.266;2023-09-12T05:20:50;103062.13;;;12.61;100.00
73101;BME280;61288;53.446;-2.266;2023-09-12T05:23:16;103079.50;;;12.61;100.00
73101;BME280;61288;53.446;-2.266;2023-09-12T05:25:41;103086.41;;;12.60;100.00
73101;BME280;61288;53.446;-2.266;2023-09-12T05:28:07;103095.13;;;12.56;100.00
73101;BME280;61288;53.446;-2.266;2023-09-12T05:30:33;103104.69;;;12.54;100.00
73101;BME280;61288;53.446;-2.266;2023-09-12T05:33:00;103119.41;;;12.53;100.00
73101;BME280;61288;53.446;-2.266;2023-09-12T05:35:25;103129.81;;;12.53;100.00
73101;BME280;61288;53.446;-2.266;2023-09-12T05:37:51;103141.97;;;12.51;100.00
73101;BME280;61288;53.446;-2.266;2023-09-12T05:40:18;103152.38;;;12.53;100.00
73101;BME280;61288;53.446;-2.266;2023-09-12T05:42:44;103175.75;;;12.54;100.00
73101;BME280;61288;53.446;-2.266;2023-09-12T05:45:09;103227.81;;;12.53;100.00
73101;BME280;61288;53.446;-2.266;2023-09-12T05:47:35;103420.22;;;12.54;100.00
73101;BME280;61288;53.446;-2.266;2023-09-12T05:50:00;103460.13;;;12.52;100.00
73101;BME280;61288;53.446;-2.266;2023-09-12T05:52:29;103519.97;;;12.49;100.00
73101;BME280;61288;53.446;-2.266;2023-09-12T05:54:55;103604.91;;;12.50;100.00
73101;BME280;61288;53.446;-2.266;2023-09-12T05:57:21;103701.16;;;12.53;100.00
73101;BME280;61288;53.446;-2.266;2023-09-12T05:59:46;103816.44;;;12.53;100.00
73101;BME280;61288;53.446;-2.266;2023-09-12T06:02:12;103957.78;;;12.57;100.00
73101;BME280;61288;53.446;-2.266;2023-09-12T06:04:37;104093.06;;;12.57;100.00
73101;BME280;61288;53.446;-2.266;2023-09-12T06:07:03;104218.78;;;12.57;100.00
73101;BME280;61288;53.446;-2.266;2023-09-12T06:09:29;104336.75;;;12.58;100.00
73101;BME280;61288;53.446;-2.266;2023-09-12T06:11:54;104438.22;;;12.61;100.00
73101;BME280;61288;53.446;-2.266;2023-09-12T06:14:20;104546.66;;;12.61;100.00
73101;BME280;61288;53.446;-2.266;2023-09-12T06:16:45;104626.41;;;12.60;100.00
73101;BME280;61288;53.446;-2.266;2023-09-12T06:19:11;104749.59;;;12.62;100.00
73101;BME280;61288;53.446;-2.266;2023-09-12T06:21:36;104894.56;;;12.68;100.00
73101;BME280;61288;53.446;-2.266;2023-09-12T06:24:11;105078.44;;;12.66;100.00
73101;BME280;61288;53.446;-2.266;2023-09-12T06:26:38;105209.38;;;12.65;100.00
73101;BME280;61288;53.446;-2.266;2023-09-12T06:29:04;105341.19;;;12.63;100.00
73101;BME280;61288;53.446;-2.266;2023-09-12T06:31:29;105466.16;;;12.64;100.00
73101;BME280;61288;53.446;-2.266;2023-09-12T06:33:55;105601.38;;;12.61;100.00
73101;BME280;61288;53.446;-2.266;2023-09-12T06:36:22;105693.31;;;12.60;100.00
73101;BME280;61288;53.446;-2.266;2023-09-12T06:38:49;105817.38;;;12.60;100.00
73101;BME280;61288;53.446;-2.266;2023-09-12T06:41:15;105912.00;;;12.62;100.00
73101;BME280;61288;53.446;-2.266;2023-09-12T06:43:40;105977.84;;;12.59;100.00
73101;BME280;61288;53.446;-2.266;2023-09-12T06:46:08;105462.47;;;12.57;100.00
73101;BME280;61288;53.446;-2.266;2023-09-12T06:48:34;105481.53;;;12.56;100.00
73101;BME280;61288;53.446;-2.266;2023-09-12T06:50:59;105516.19;;;12.55;100.00
73101;BME280;61288;53.446;-2.266;2023-09-12T06:53:24;105565.66;;;12.55;100.00
73101;BME280;61288;53.446;-2.266;2023-09-12T06:55:50;105634.28;;;12.59;100.00
73101;BME280;61288;53.446;-2.266;2023-09-12T06:58:15;105682.97;;;12.62;100.00
73101;BME280;61288;53.446;-2.266;2023-09-12T07:00:41;105760.25;;;12.64;100.00
73101;BME280;61288;53.446;-2.266;2023-09-12T07:03:06;105848.81;;;12.66;100.00
73101;BME280;61288;53.446;-2.266;2023-09-12T07:05:36;105985.13;;;12.69;100.00
73101;BME280;61288;53.446;-2.266;2023-09-12T07:08:04;106095.41;;;12.71;100.00
73101;BME280;61288;53.446;-2.266;2023-09-12T07:10:29;106247.28;;;12.72;100.00
73101;BME280;61288;53.446;-2.266;2023-09-12T07:12:55;106370.47;;;12.71;100.00
73101;BME280;61288;53.446;-2.266;2023-09-12T07:15:20;106481.53;;;12.70;100.00
73101;BME280;61288;53.446;-2.266;2023-09-12T07:17:46;106644.66;;;12.70;100.00
73101;BME280;61288;53.446;-2.266;2023-09-12T07:20:12;106755.81;;;12.71;100.00
73101;BME280;61288;53.446;-2.266;2023-09-12T07:22:38;106887.78;;;12.72;100.00
73101;BME280;61288;53.446;-2.266;2023-09-12T07:25:07;107102.16;;;12.73;100.00
73101;BME280;61288;53.446;-2.266;2023-09-12T07:27:34;107524.13;;;12.74;100.00
73101;BME280;61288;53.446;-2.266;2023-09-12T07:30:00;107901.78;;;12.74;100.00
73101;BME280;61288;53.446;-2.266;2023-09-12T07:32:27;108184.22;;;12.78;100.00
73101;BME280;61288;53.446;-2.266;2023-09-12T07:34:53;108472.56;;;12.79;100.00
73101;BME280;61288;53.446;-2.266;2023-09-12T07:37:22;108812.50;;;12.84;100.00
73101;BME280;61288;53.446;-2.266;2023-09-12T07:39:47;109167.91;;;12.86;100.00
73101;BME280;61288;53.446;-2.266;2023-09-12T07:42:13;109572.63;;;12.85;100.00
73101;BME280;61288;53.446;-2.266;2023-09-12T07:44:38;109881.81;;;12.84;100.00
73101;BME280;61288;53.446;-2.266;2023-09-12T07:47:04;110212.03;;;12.85;100.00
73101;BME280;61288;53.446;-2.266;2023-09-12T07:49:30;110412.59;;;12.84;100.00
73101;BME280;61288;53.446;-2.266;2023-09-12T07:51:56;110651.03;;;12.88;100.00
73101;BME280;61288;53.446;-2.266;2023-09-12T07:54:22;110980.63;;;12.90;100.00
73101;BME280;61288;53.446;-2.266;2023-09-12T07:56:48;111248.63;;;12.92;100.00
73101;BME280;61288;53.446;-2.266;2023-09-12T07:59:13;111546.06;;;12.94;100.00
73101;BME280;61288;53.446;-2.266;2023-09-12T08:01:40;111933.34;;;12.97;100.00
73101;BME280;61288;53.446;-2.266;2023-09-12T08:04:06;112274.50;;;13.00;100.00
73101;BME280;61288;53.446;-2.266;2023-09-12T08:06:34;112595.34;;;13.00;100.00
73101;BME280;61288;53.446;-2.266;2023-09-12T08:09:00;112940.41;;;12.99;100.00
73101;BME280;61288;53.446;-2.266;2023-09-12T08:11:26;113286.69;;;13.00;100.00
73101;BME280;61288;53.446;-2.266;2023-09-12T08:13:54;113501.09;;;12.97;100.00
73101;BME280;61288;53.446;-2.266;2023-09-12T08:16:20;113610.66;;;12.97;100.00
73101;BME280;61288;53.446;-2.266;2023-09-12T08:18:45;113641.97;;;12.97;100.00
73101;BME280;61288;53.446;-2.266;2023-09-12T08:21:12;113661.44;;;12.99;100.00
73101;BME280;61288;53.446;-2.266;2023-09-12T08:23:38;113684.19;;;13.00;100.00
73101;BME280;61288;53.446;-2.266;2023-09-12T08:26:03;113712.69;;;13.05;100.00
73101;BME280;61288;53.446;-2.266;2023-09-12T08:28:30;113771.53;;;13.08;100.00
73101;BME280;61288;53.446;-2.266;2023-09-12T08:30:55;113846.78;;;13.11;100.00
73101;BME280;61288;53.446;-2.266;2023-09-12T08:33:21;113929.09;;;13.14;100.00
73101;BME280;61288;53.446;-2.266;2023-09-12T08:35:48;114022.63;;;13.17;100.00
73101;BME280;61288;53.446;-2.266;2023-09-12T08:38:14;114081.00;;;13.18;100.00
73101;BME280;61288;53.446;-2.266;2023-09-12T08:40:40;114191.84;;;13.20;100.00
73101;BME280;61288;53.446;-2.266;2023-09-12T08:43:06;114255.00;;;13.23;100.00
73101;BME280;61288;53.446;-2.266;2023-09-12T08:45:32;114295.81;;;13.22;100.00
73101;BME280;61288;53.446;-2.266;2023-09-12T08:47:59;114281.56;;;13.20;100.00
73101;BME280;61288;53.446;-2.266;2023-09-12T08:50:28;114189.03;;;13.24;100.00
73101;BME280;61288;53.446;-2.266;2023-09-12T08:52:58;114104.09;;;13.26;100.00
73101;BME280;61288;53.446;-2.266;2023-09-12T08:55:23;114063.06;;;13.31;100.00
73101;BME280;61288;53.446;-2.266;2023-09-12T08:57:50;114018.94;;;13.32;100.00
73101;BME280;61288;53.446;-2.266;2023-09-12T09:00:16;113948.69;;;13.34;100.00
73101;BME280;61288;53.446;-2.266;2023-09-12T09:02:43;113795.34;;;13.33;100.00
73101;BME280;61288;53.446;-2.266;2023-09-12T09:05:11;113586.97;;;13.36;100.00
73101;BME280;61288;53.446;-2.266;2023-09-12T09:07:40;113382.16;;;13.34;100.00
73101;BME280;61288;53.446;-2.266;2023-09-12T09:10:07;112909.25;;;13.31;100.00
73101;BME280;61288;53.446;-2.266;2023-09-12T09:12:34;112228.63;;;13.28;100.00
73101;BME280;61288;53.446;-2.266;2023-09-12T09:15:20;111385.28;;;13.31;100.00
73101;BME280;61288;53.446;-2.266;2023-09-12T09:17:47;110754.88;;;13.31;100.00
73101;BME280;61288;53.446;-2.266;2023-09-12T09:20:27;110119.28;;;13.32;100.00
73101;BME280;61288;53.446;-2.266;2023-09-12T09:22:58;109600.56;;;13.35;100.00
73101;BME280;61288;53.446;-2.266;2023-09-12T09:25:24;109180.91;;;13.38;100.00
73101;BME280;61288;53.446;-2.266;2023-09-12T09:27:49;108899.50;;;13.41;100.00
73101;BME280;61288;53.446;-2.266;2023-09-12T09:30:15;108620.75;;;13.44;100.00
73101;BME280;61288;53.446;-2.266;2023-09-12T09:32:40;108310.44;;;13.44;100.00
73101;BME280;61288;53.446;-2.266;2023-09-12T09:35:06;107916.78;;;13.46;100.00
73101;BME280;61288;53.446;-2.266;2023-09-12T09:37:33;107552.72;;;13.48;100.00
73101;BME280;61288;53.446;-2.266;2023-09-12T09:39:59;107228.78;;;13.52;100.00
73101;BME280;61288;53.446;-2.266;2023-09-12T09:42:28;106966.41;;;13.54;100.00
73101;BME280;61288;53.446;-2.266;2023-09-12T09:44:54;106712.78;;;13.56;100.00
73101;BME280;61288;53.446;-2.266;2023-09-12T09:47:20;106429.56;;;13.58;100.00
73101;BME280;61288;53.446;-2.266;2023-09-12T09:49:45;106107.19;;;13.59;100.00
73101;BME280;61288;53.446;-2.266;2023-09-12T09:52:12;105690.00;;;13.56;100.00
73101;BME280;61288;53.446;-2.266;2023-09-12T09:54:43;105156.66;;;13.60;100.00
73101;BME280;61288;53.446;-2.266;2023-09-12T09:57:10;104490.41;;;13.63;100.00
73101;BME280;61288;53.446;-2.266;2023-09-12T09:59:36;103989.19;;;13.66;100.00
73101;BME280;61288;53.446;-2.266;2023-09-12T10:02:05;103762.47;;;13.72;100.00
73101;BME280;61288;53.446;-2.266;2023-09-12T10:04:35;103627.84;;;13.72;100.00
73101;BME280;61288;53.446;-2.266;2023-09-12T10:07:02;103568.78;;;13.70;100.00
73101;BME280;61288;53.446;-2.266;2023-09-12T10:09:28;103534.91;;;13.70;100.00
73101;BME280;61288;53.446;-2.266;2023-09-12T10:11:57;103525.38;;;13.70;100.00
73101;BME280;61288;53.446;-2.266;2023-09-12T10:14:24;103544.44;;;13.74;100.00
73101;BME280;61288;53.446;-2.266;2023-09-12T10:16:58;103555.69;;;13.78;100.00
73101;BME280;61288;53.446;-2.266;2023-09-12T10:19:32;103521.84;;;13.76;100.00
73101;BME280;61288;53.446;-2.266;2023-09-12T10:22:34;103506.19;;;13.78;100.00
73101;BME280;61288;53.446;-2.266;2023-09-12T10:25:01;103468.88;;;13.71;100.00
73101;BME280;61288;53.446;-2.266;2023-09-12T10:27:27;103436.78;;;13.70;100.00
73101;BME280;61288;53.446;-2.266;2023-09-12T10:29:53;103399.44;;;13.67;100.00
73101;BME280;61288;53.446;-2.266;2023-09-12T10:32:19;103369.91;;;13.69;100.00
73101;BME280;61288;53.446;-2.266;2023-09-12T10:34:52;103344.69;;;13.70;100.00
73101;BME280;61288;53.446;-2.266;2023-09-12T10:37:22;103319.53;;;13.70;100.00
73101;BME280;61288;53.446;-2.266;2023-09-12T10:39:48;103304.72;;;13.71;100.00
73101;BME280;61288;53.446;-2.266;2023-09-12T10:42:16;103293.47;;;13.70;100.00
73101;BME280;61288;53.446;-2.266;2023-09-12T10:44:44;103287.34;;;13.73;100.00
73101;BME280;61288;53.446;-2.266;2023-09-12T10:47:11;103269.97;;;13.74;100.00
73101;BME280;61288;53.446;-2.266;2023-09-12T10:49:37;103262.13;;;13.75;100.00
73101;BME280;61288;53.446;-2.266;2023-09-12T10:52:03;103256.03;;;13.78;100.00
73101;BME280;61288;53.446;-2.266;2023-09-12T10:54:39;103242.16;;;13.77;100.00
73101;BME280;61288;53.446;-2.266;2023-09-12T10:57:09;103234.28;;;13.80;100.00
73101;BME280;61288;53.446;-2.266;2023-09-12T11:00:17;103225.53;;;13.84;100.00
73101;BME280;61288;53.446;-2.266;2023-09-12T11:02:42;103224.63;;;13.87;100.00
73101;BME280;61288;53.446;-2.266;2023-09-12T11:07:56;103153.41;;;13.86;100.00
73101;BME280;61288;53.446;-2.266;2023-09-12T11:10:22;103136.84;;;13.89;100.00
73101;BME280;61288;53.446;-2.266;2023-09-12T11:12:50;103128.06;;;13.95;100.00
73101;BME280;61288;53.446;-2.266;2023-09-12T11:15:16;103109.88;;;13.93;100.00
73101;BME280;61288;53.446;-2.266;2023-09-12T11:17:47;103108.00;;;14.01;100.00
73101;BME280;61288;53.446;-2.266;2023-09-12T11:20:14;103100.94;;;14.07;100.00
73101;BME280;61288;53.446;-2.266;2023-09-12T11:22:43;103080.06;;;14.08;100.00
73101;BME280;61288;53.446;-2.266;2023-09-12T11:25:17;103052.19;;;14.13;100.00
73101;BME280;61288;53.446;-2.266;2023-09-12T11:28:01;103014.78;;;14.14;100.00
73101;BME280;61288;53.446;-2.266;2023-09-12T11:30:28;102999.09;;;14.18;100.00
73101;BME280;61288;53.446;-2.266;2023-09-12T11:32:57;102972.06;;;14.20;100.00
73101;BME280;61288;53.446;-2.266;2023-09-12T11:35:24;102950.31;;;14.21;100.00
73101;BME280;61288;53.446;-2.266;2023-09-12T11:37:51;102931.19;;;14.22;100.00
73101;BME280;61288;53.446;-2.266;2023-09-12T11:40:46;102912.91;;;14.25;100.00
73101;BME280;61288;53.446;-2.266;2023-09-12T11:43:20;102889.50;;;14.21;100.00
73101;BME280;61288;53.446;-2.266;2023-09-12T11:45:47;102866.06;;;14.21;100.00
73101;BME280;61288;53.446;-2.266;2023-09-12T11:48:12;102838.28;;;14.18;100.00
73101;BME280;61288;53.446;-2.266;2023-09-12T11:50:38;102824.41;;;14.16;100.00
73101;BME280;61288;53.446;-2.266;2023-09-12T11:53:08;102805.34;;;14.15;100.00
73101;BME280;61288;53.446;-2.266;2023-09-12T11:55:44;102787.97;;;14.14;100.00
73101;BME280;61288;53.446;-2.266;2023-09-12T11:58:11;102759.31;;;14.13;100.00
73101;BME280;61288;53.446;-2.266;2023-09-12T12:00:37;102735.94;;;14.08;100.00
73101;BME280;61288;53.446;-2.266;2023-09-12T12:03:03;102722.91;;;14.08;100.00
73101;BME280;61288;53.446;-2.266;2023-09-12T12:05:30;102726.50;;;14.04;100.00
73101;BME280;61288;53.446;-2.266;2023-09-12T12:07:58;102716.06;;;14.04;100.00
73101;BME280;61288;53.446;-2.266;2023-09-12T12:10:24;102701.31;;;14.03;100.00
73101;BME280;61288;53.446;-2.266;2023-09-12T12:12:53;102699.59;;;14.02;100.00
73101;BME280;61288;53.446;-2.266;2023-09-12T12:15:18;102671.09;;;13.96;100.00
73101;BME280;61288;53.446;-2.266;2023-09-12T12:17:44;102660.72;;;13.94;100.00
73101;BME280;61288;53.446;-2.266;2023-09-12T12:20:10;102643.34;;;13.93;100.00
73101;BME280;61288;53.446;-2.266;2023-09-12T12:22:40;102636.47;;;13.91;100.00
73101;BME280;61288;53.446;-2.266;2023-09-12T12:25:07;102632.16;;;13.88;100.00
73101;BME280;61288;53.446;-2.266;2023-09-12T12:27:36;102631.41;;;13.83;100.00
73101;BME280;61288;53.446;-2.266;2023-09-12T12:30:02;102628.78;;;13.84;100.00
73101;BME280;61288;53.446;-2.266;2023-09-12T12:32:28;102622.78;;;13.81;100.00
73101;BME280;61288;53.446;-2.266;2023-09-12T12:34:54;102608.03;;;13.81;100.00
73101;BME280;61288;53.446;-2.266;2023-09-12T12:37:19;102605.41;;;13.81;100.00
73101;BME280;61288;53.446;-2.266;2023-09-12T12:39:45;102592.34;;;13.83;100.00